sensor_id;sensor_type;location;lat;lon;timestamp;P1;durP1;ratioP1;P2;durP2;ratioP2
11191;SDS011;5652;48.406;10.820;2022-10-19T00:01:00;5.28;;;4.20;;
11191;SDS011;5652;48.406;10.820;2022-10-19T00:03:27;5.38;;;4.47;;
11191;SDS011;5652;48.406;10.820;2022-10-19T00:05:54;6.47;;;4.45;;
11191;SDS011;5652;48.406;10.820;2022-10-19T00:08:21;15.18;;;5.55;;
11191;SDS011;5652;48.406;10.820;2022-10-19T00:10:48;16.25;;;6.28;;
11191;SDS011;5652;48.406;10.820;2022-10-19T00:13:16;17.08;;;7.50;;
11191;SDS011;5652;48.406;10.820;2022-10-19T00:15:44;205.90;;;8.95;;
11191;SDS011;5652;48.406;10.820;2022-10-19T00:18:12;54.83;;;6.55;;
11191;SDS011;5652;48.406;10.820;2022-10-19T00:20:39;26.55;;;5.47;;
11191;SDS011;5652;48.406;10.820;2022-10-19T00:23:06;18.98;;;4.90;;
11191;SDS011;5652;48.406;10.820;2022-10-19T00:25:33;26.23;;;5.10;;
11191;SDS011;5652;48.406;10.820;2022-10-19T00:28:01;25.10;;;4.78;;
11191;SDS011;5652;48.406;10.820;2022-10-19T00:30:28;12.98;;;3.92;;
11191;SDS011;5652;48.406;10.820;2022-10-19T00:32:56;14.38;;;3.90;;
11191;SDS011;5652;48.406;10.820;2022-10-19T00:35:23;13.98;;;3.92;;
11191;SDS011;5652;48.406;10.820;2022-10-19T00:37:51;9.18;;;3.90;;
11191;SDS011;5652;48.406;10.820;2022-10-19T00:40:18;24.77;;;4.25;;
11191;SDS011;5652;48.406;10.820;2022-10-19T00:42:45;11.55;;;3.78;;
11191;SDS011;5652;48.406;10.820;2022-10-19T00:45:13;16.38;;;4.57;;
11191;SDS011;5652;48.406;10.820;2022-10-19T00:47:40;13.40;;;5.00;;
11191;SDS011;5652;48.406;10.820;2022-10-19T00:50:09;10.80;;;4.50;;
11191;SDS011;5652;48.406;10.820;2022-10-19T00:52:36;17.38;;;4.88;;
11191;SDS011;5652;48.406;10.820;2022-10-19T00:55:04;25.67;;;4.60;;
11191;SDS011;5652;48.406;10.820;2022-10-19T00:57:32;10.13;;;4.18;;
11191;SDS011;5652;48.406;10.820;2022-10-19T01:00:00;13.10;;;4.53;;
11191;SDS011;5652;48.406;10.820;2022-10-19T01:02:29;12.50;;;4.63;;
11191;SDS011;5652;48.406;10.820;2022-10-19T01:04:56;7.18;;;4.50;;
11191;SDS011;5652;48.406;10.820;2022-10-19T01:07:25;6.60;;;4.72;;
11191;SDS011;5652;48.406;10.820;2022-10-19T01:09:53;7.43;;;4.07;;
11191;SDS011;5652;48.406;10.820;2022-10-19T01:12:22;5.20;;;3.90;;
11191;SDS011;5652;48.406;10.820;2022-10-19T01:15:00;5.05;;;3.97;;
11191;SDS011;5652;48.406;10.820;2022-10-19T01:17:31;4.13;;;3.28;;
11191;SDS011;5652;48.406;10.820;2022-10-19T01:22:54;5.37;;;3.03;;
11191;SDS011;5652;48.406;10.820;2022-10-19T01:25:29;7.63;;;3.50;;
11191;SDS011;5652;48.406;10.820;2022-10-19T01:28:02;6.93;;;3.42;;
11191;SDS011;5652;48.406;10.820;2022-10-19T01:30:39;6.93;;;3.60;;
11191;SDS011;5652;48.406;10.820;2022-10-19T01:33:12;6.65;;;3.65;;
11191;SDS011;5652;48.406;10.820;2022-10-19T01:35:42;9.38;;;3.88;;
11191;SDS011;5652;48.406;10.820;2022-10-19T01:38:14;11.80;;;3.80;;
11191;SDS011;5652;48.406;10.820;2022-10-19T01:40:48;15.65;;;4.32;;
11191;SDS011;5652;48.406;10.820;2022-10-19T01:43:19;22.02;;;4.75;;
11191;SDS011;5652;48.406;10.820;2022-10-19T01:45:49;21.67;;;4.75;;
11191;SDS011;5652;48.406;10.820;2022-10-19T01:48:19;37.50;;;5.72;;
11191;SDS011;5652;48.406;10.820;2022-10-19T01:50:49;34.83;;;5.72;;
11191;SDS011;5652;48.406;10.820;2022-10-19T01:53:17;30.77;;;4.85;;
11191;SDS011;5652;48.406;10.820;2022-10-19T01:55:45;22.25;;;4.70;;
11191;SDS011;5652;48.406;10.820;2022-10-19T01:58:15;18.70;;;4.93;;
11191;SDS011;5652;48.406;10.820;2022-10-19T02:00:44;37.03;;;5.50;;
11191;SDS011;5652;48.406;10.820;2022-10-19T02:03:13;36.90;;;5.15;;
11191;SDS011;5652;48.406;10.820;2022-10-19T02:05:41;27.42;;;4.85;;
11191;SDS011;5652;48.406;10.820;2022-10-19T02:08:09;21.50;;;4.63;;
11191;SDS011;5652;48.406;10.820;2022-10-19T02:10:38;28.50;;;4.68;;
11191;SDS011;5652;48.406;10.820;2022-10-19T02:13:07;29.42;;;5.05;;
11191;SDS011;5652;48.406;10.820;2022-10-19T02:15:36;34.10;;;5.20;;
11191;SDS011;5652;48.406;10.820;2022-10-19T02:18:04;28.02;;;6.13;;
11191;SDS011;5652;48.406;10.820;2022-10-19T02:20:33;41.97;;;5.73;;
11191;SDS011;5652;48.406;10.820;2022-10-19T02:23:02;27.05;;;5.35;;
11191;SDS011;5652;48.406;10.820;2022-10-19T02:25:29;40.47;;;5.78;;
11191;SDS011;5652;48.406;10.820;2022-10-19T02:27:58;69.80;;;5.97;;
11191;SDS011;5652;48.406;10.820;2022-10-19T02:30:26;58.75;;;5.68;;
11191;SDS011;5652;48.406;10.820;2022-10-19T02:32:53;33.17;;;5.33;;
11191;SDS011;5652;48.406;10.820;2022-10-19T02:35:20;23.33;;;5.88;;
11191;SDS011;5652;48.406;10.820;2022-10-19T02:37:49;33.60;;;6.50;;
11191;SDS011;5652;48.406;10.820;2022-10-19T02:40:16;40.45;;;8.23;;
11191;SDS011;5652;48.406;10.820;2022-10-19T02:42:44;54.85;;;9.23;;
11191;SDS011;5652;48.406;10.820;2022-10-19T02:45:15;41.53;;;8.63;;
11191;SDS011;5652;48.406;10.820;2022-10-19T02:47:46;32.97;;;8.38;;
11191;SDS011;5652;48.406;10.820;2022-10-19T02:50:15;59.03;;;8.25;;
11191;SDS011;5652;48.406;10.820;2022-10-19T02:52:42;34.63;;;9.55;;
11191;SDS011;5652;48.406;10.820;2022-10-19T02:55:11;54.22;;;11.75;;
11191;SDS011;5652;48.406;10.820;2022-10-19T02:57:38;51.05;;;12.07;;
11191;SDS011;5652;48.406;10.820;2022-10-19T03:00:06;121.18;;;13.23;;
11191;SDS011;5652;48.406;10.820;2022-10-19T03:02:33;56.13;;;12.98;;
11191;SDS011;5652;48.406;10.820;2022-10-19T03:05:01;60.55;;;13.23;;
11191;SDS011;5652;48.406;10.820;2022-10-19T03:07:28;40.22;;;13.18;;
11191;SDS011;5652;48.406;10.820;2022-10-19T03:09:55;42.92;;;12.70;;
11191;SDS011;5652;48.406;10.820;2022-10-19T03:12:23;33.97;;;12.77;;
11191;SDS011;5652;48.406;10.820;2022-10-19T03:14:51;34.97;;;12.33;;
11191;SDS011;5652;48.406;10.820;2022-10-19T03:17:18;37.83;;;11.88;;
11191;SDS011;5652;48.406;10.820;2022-10-19T03:19:45;31.23;;;10.68;;
11191;SDS011;5652;48.406;10.820;2022-10-19T03:22:12;43.07;;;10.40;;
11191;SDS011;5652;48.406;10.820;2022-10-19T03:24:40;44.90;;;10.65;;
11191;SDS011;5652;48.406;10.820;2022-10-19T03:27:07;27.02;;;10.80;;
11191;SDS011;5652;48.406;10.820;2022-10-19T03:29:35;27.10;;;11.45;;
11191;SDS011;5652;48.406;10.820;2022-10-19T03:32:03;35.20;;;11.15;;
11191;SDS011;5652;48.406;10.820;2022-10-19T03:34:30;62.85;;;10.52;;
11191;SDS011;5652;48.406;10.820;2022-10-19T03:36:57;29.48;;;10.05;;
11191;SDS011;5652;48.406;10.820;2022-10-19T03:39:24;28.87;;;9.90;;
11191;SDS011;5652;48.406;10.820;2022-10-19T03:41:51;24.05;;;9.98;;
11191;SDS011;5652;48.406;10.820;2022-10-19T03:44:19;38.27;;;9.80;;
11191;SDS011;5652;48.406;10.820;2022-10-19T03:46:47;53.72;;;10.23;;
11191;SDS011;5652;48.406;10.820;2022-10-19T03:49:14;52.03;;;11.10;;
11191;SDS011;5652;48.406;10.820;2022-10-19T03:51:41;44.35;;;10.15;;
11191;SDS011;5652;48.406;10.820;2022-10-19T03:54:11;37.58;;;10.73;;
11191;SDS011;5652;48.406;10.820;2022-10-19T03:56:38;30.48;;;10.13;;
11191;SDS011;5652;48.406;10.820;2022-10-19T03:59:06;23.40;;;10.60;;
11191;SDS011;5652;48.406;10.820;2022-10-19T04:01:34;26.85;;;10.73;;
11191;SDS011;5652;48.406;10.820;2022-10-19T04:04:03;30.33;;;9.67;;
11191;SDS011;5652;48.406;10.820;2022-10-19T04:06:32;26.27;;;9.68;;
11191;SDS011;5652;48.406;10.820;2022-10-19T04:08:59;23.92;;;10.55;;
11191;SDS011;5652;48.406;10.820;2022-10-19T04:11:27;25.63;;;9.95;;
11191;SDS011;5652;48.406;10.820;2022-10-19T04:13:55;28.00;;;10.60;;
11191;SDS011;5652;48.406;10.820;2022-10-19T04:16:23;22.00;;;10.73;;
11191;SDS011;5652;48.406;10.820;2022-10-19T04:18:51;26.35;;;11.18;;
11191;SDS011;5652;48.406;10.820;2022-10-19T04:21:20;24.03;;;10.30;;
11191;SDS011;5652;48.406;10.820;2022-10-19T04:23:48;25.38;;;10.10;;
11191;SDS011;5652;48.406;10.820;2022-10-19T04:26:15;20.13;;;9.55;;
11191;SDS011;5652;48.406;10.820;2022-10-19T04:28:42;22.65;;;9.80;;
11191;SDS011;5652;48.406;10.820;2022-10-19T04:31:09;23.92;;;9.27;;
11191;SDS011;5652;48.406;10.820;2022-10-19T04:33:37;22.13;;;10.05;;
11191;SDS011;5652;48.406;10.820;2022-10-19T04:36:05;23.05;;;10.30;;
11191;SDS011;5652;48.406;10.820;2022-10-19T04:38:34;21.13;;;10.18;;
11191;SDS011;5652;48.406;10.820;2022-10-19T04:41:02;21.13;;;10.15;;
11191;SDS011;5652;48.406;10.820;2022-10-19T04:43:29;22.15;;;11.02;;
11191;SDS011;5652;48.406;10.820;2022-10-19T04:45:56;23.42;;;10.95;;
11191;SDS011;5652;48.406;10.820;2022-10-19T04:48:27;22.92;;;10.35;;
11191;SDS011;5652;48.406;10.820;2022-10-19T04:50:54;23.35;;;10.65;;
11191;SDS011;5652;48.406;10.820;2022-10-19T04:53:21;22.23;;;10.23;;
11191;SDS011;5652;48.406;10.820;2022-10-19T04:55:50;21.77;;;10.53;;
11191;SDS011;5652;48.406;10.820;2022-10-19T04:58:18;23.88;;;11.30;;
11191;SDS011;5652;48.406;10.820;2022-10-19T05:00:45;19.83;;;10.33;;
11191;SDS011;5652;48.406;10.820;2022-10-19T05:03:12;19.20;;;10.43;;
11191;SDS011;5652;48.406;10.820;2022-10-19T05:05:40;16.88;;;9.50;;
11191;SDS011;5652;48.406;10.820;2022-10-19T05:08:07;21.90;;;10.57;;
11191;SDS011;5652;48.406;10.820;2022-10-19T05:10:35;20.33;;;9.70;;
11191;SDS011;5652;48.406;10.820;2022-10-19T05:13:04;19.37;;;9.30;;
11191;SDS011;5652;48.406;10.820;2022-10-19T05:15:31;19.02;;;9.52;;
11191;SDS011;5652;48.406;10.820;2022-10-19T05:17:59;21.60;;;9.35;;
11191;SDS011;5652;48.406;10.820;2022-10-19T05:20:26;17.30;;;9.15;;
11191;SDS011;5652;48.406;10.820;2022-10-19T05:22:54;19.83;;;10.10;;
11191;SDS011;5652;48.406;10.820;2022-10-19T05:25:21;23.25;;;9.60;;
11191;SDS011;5652;48.406;10.820;2022-10-19T05:27:51;19.50;;;9.32;;
11191;SDS011;5652;48.406;10.820;2022-10-19T05:30:20;18.90;;;9.18;;
11191;SDS011;5652;48.406;10.820;2022-10-19T05:32:47;21.73;;;9.33;;
11191;SDS011;5652;48.406;10.820;2022-10-19T05:35:14;18.02;;;9.15;;
11191;SDS011;5652;48.406;10.820;2022-10-19T05:37:41;20.05;;;9.93;;
11191;SDS011;5652;48.406;10.820;2022-10-19T05:40:09;24.52;;;10.30;;
11191;SDS011;5652;48.406;10.820;2022-10-19T05:42:36;20.63;;;10.63;;
11191;SDS011;5652;48.406;10.820;2022-10-19T05:45:03;23.23;;;10.37;;
11191;SDS011;5652;48.406;10.820;2022-10-19T05:47:32;21.33;;;9.40;;
11191;SDS011;5652;48.406;10.820;2022-10-19T05:49:59;16.80;;;9.57;;
11191;SDS011;5652;48.406;10.820;2022-10-19T05:52:26;20.27;;;10.00;;
11191;SDS011;5652;48.406;10.820;2022-10-19T05:54:54;19.08;;;9.73;;
11191;SDS011;5652;48.406;10.820;2022-10-19T05:57:22;18.85;;;9.32;;
11191;SDS011;5652;48.406;10.820;2022-10-19T05:59:49;19.00;;;9.83;;
11191;SDS011;5652;48.406;10.820;2022-10-19T06:02:20;18.40;;;9.45;;
11191;SDS011;5652;48.406;10.820;2022-10-19T06:04:49;18.77;;;9.00;;
11191;SDS011;5652;48.406;10.820;2022-10-19T06:07:16;15.23;;;9.52;;
11191;SDS011;5652;48.406;10.820;2022-10-19T06:09:44;15.93;;;8.95;;
11191;SDS011;5652;48.406;10.820;2022-10-19T06:12:11;18.08;;;8.90;;
11191;SDS011;5652;48.406;10.820;2022-10-19T06:14:39;18.52;;;9.88;;
11191;SDS011;5652;48.406;10.820;2022-10-19T06:17:06;16.98;;;9.88;;
11191;SDS011;5652;48.406;10.820;2022-10-19T06:19:34;16.38;;;9.32;;
11191;SDS011;5652;48.406;10.820;2022-10-19T06:22:03;16.83;;;9.82;;
11191;SDS011;5652;48.406;10.820;2022-10-19T06:24:30;17.33;;;9.98;;
11191;SDS011;5652;48.406;10.820;2022-10-19T06:26:57;16.85;;;9.50;;
11191;SDS011;5652;48.406;10.820;2022-10-19T06:29:24;18.75;;;9.52;;
11191;SDS011;5652;48.406;10.820;2022-10-19T06:31:52;15.40;;;8.60;;
11191;SDS011;5652;48.406;10.820;2022-10-19T06:34:20;17.27;;;10.30;;
11191;SDS011;5652;48.406;10.820;2022-10-19T06:36:47;18.05;;;9.60;;
11191;SDS011;5652;48.406;10.820;2022-10-19T06:39:16;15.02;;;8.63;;
11191;SDS011;5652;48.406;10.820;2022-10-19T06:41:43;16.67;;;8.93;;
11191;SDS011;5652;48.406;10.820;2022-10-19T06:44:10;14.10;;;8.95;;
11191;SDS011;5652;48.406;10.820;2022-10-19T06:46:37;17.20;;;9.23;;
11191;SDS011;5652;48.406;10.820;2022-10-19T06:49:05;17.38;;;9.13;;
11191;SDS011;5652;48.406;10.820;2022-10-19T06:51:32;16.07;;;8.90;;
11191;SDS011;5652;48.406;10.820;2022-10-19T06:53:59;17.77;;;8.68;;
11191;SDS011;5652;48.406;10.820;2022-10-19T06:56:27;13.75;;;8.80;;
11191;SDS011;5652;48.406;10.820;2022-10-19T06:58:55;14.75;;;8.88;;
11191;SDS011;5652;48.406;10.820;2022-10-19T07:01:24;13.70;;;9.02;;
11191;SDS011;5652;48.406;10.820;2022-10-19T07:03:51;14.57;;;9.33;;
11191;SDS011;5652;48.406;10.820;2022-10-19T07:06:19;14.47;;;8.60;;
11191;SDS011;5652;48.406;10.820;2022-10-19T07:08:46;12.80;;;8.70;;
11191;SDS011;5652;48.406;10.820;2022-10-19T07:11:14;11.40;;;8.27;;
11191;SDS011;5652;48.406;10.820;2022-10-19T07:13:43;12.57;;;8.40;;
11191;SDS011;5652;48.406;10.820;2022-10-19T07:16:10;15.40;;;9.25;;
11191;SDS011;5652;48.406;10.820;2022-10-19T07:18:39;12.43;;;9.02;;
11191;SDS011;5652;48.406;10.820;2022-10-19T07:21:08;17.15;;;9.25;;
11191;SDS011;5652;48.406;10.820;2022-10-19T07:23:36;14.43;;;8.95;;
11191;SDS011;5652;48.406;10.820;2022-10-19T07:26:04;11.73;;;9.10;;
11191;SDS011;5652;48.406;10.820;2022-10-19T07:28:31;13.40;;;8.90;;
11191;SDS011;5652;48.406;10.820;2022-10-19T07:31:04;13.82;;;9.60;;
11191;SDS011;5652;48.406;10.820;2022-10-19T07:33:31;12.90;;;9.50;;
11191;SDS011;5652;48.406;10.820;2022-10-19T07:35:59;13.70;;;9.10;;
11191;SDS011;5652;48.406;10.820;2022-10-19T07:38:26;13.27;;;9.20;;
11191;SDS011;5652;48.406;10.820;2022-10-19T07:40:58;13.10;;;8.90;;
11191;SDS011;5652;48.406;10.820;2022-10-19T07:43:25;13.60;;;8.30;;
11191;SDS011;5652;48.406;10.820;2022-10-19T07:45:56;11.38;;;8.00;;
11191;SDS011;5652;48.406;10.820;2022-10-19T07:48:25;12.77;;;8.27;;
11191;SDS011;5652;48.406;10.820;2022-10-19T07:50:52;11.93;;;7.68;;
11191;SDS011;5652;48.406;10.820;2022-10-19T07:53:19;12.80;;;8.30;;
11191;SDS011;5652;48.406;10.820;2022-10-19T07:55:46;12.88;;;8.30;;
11191;SDS011;5652;48.406;10.820;2022-10-19T07:58:13;10.82;;;8.18;;
11191;SDS011;5652;48.406;10.820;2022-10-19T08:00:40;10.40;;;8.10;;
11191;SDS011;5652;48.406;10.820;2022-10-19T08:03:08;10.93;;;7.85;;
11191;SDS011;5652;48.406;10.820;2022-10-19T08:05:36;9.57;;;7.18;;
11191;SDS011;5652;48.406;10.820;2022-10-19T08:08:03;12.43;;;7.93;;
11191;SDS011;5652;48.406;10.820;2022-10-19T08:10:31;10.85;;;7.60;;
11191;SDS011;5652;48.406;10.820;2022-10-19T08:12:58;12.00;;;7.38;;
11191;SDS011;5652;48.406;10.820;2022-10-19T08:15:25;7.80;;;6.57;;
11191;SDS011;5652;48.406;10.820;2022-10-19T08:17:52;8.98;;;6.28;;
11191;SDS011;5652;48.406;10.820;2022-10-19T08:20:19;10.07;;;6.93;;
11191;SDS011;5652;48.406;10.820;2022-10-19T08:22:48;9.63;;;6.82;;
11191;SDS011;5652;48.406;10.820;2022-10-19T08:25:15;7.78;;;5.93;;
11191;SDS011;5652;48.406;10.820;2022-10-19T08:27:42;7.30;;;5.68;;
11191;SDS011;5652;48.406;10.820;2022-10-19T08:30:09;8.27;;;6.28;;
11191;SDS011;5652;48.406;10.820;2022-10-19T08:32:37;11.02;;;6.80;;
11191;SDS011;5652;48.406;10.820;2022-10-19T08:35:04;7.40;;;5.80;;
11191;SDS011;5652;48.406;10.820;2022-10-19T08:37:31;6.13;;;4.97;;
11191;SDS011;5652;48.406;10.820;2022-10-19T08:40:03;6.93;;;5.30;;
11191;SDS011;5652;48.406;10.820;2022-10-19T08:42:31;6.45;;;5.53;;
11191;SDS011;5652;48.406;10.820;2022-10-19T08:45:21;10.38;;;6.05;;
11191;SDS011;5652;48.406;10.820;2022-10-19T08:50:35;7.70;;;5.57;;
11191;SDS011;5652;48.406;10.820;2022-10-19T08:53:04;5.90;;;5.05;;
11191;SDS011;5652;48.406;10.820;2022-10-19T08:55:37;5.97;;;4.97;;
11191;SDS011;5652;48.406;10.820;2022-10-19T08:58:11;6.60;;;5.03;;
11191;SDS011;5652;48.406;10.820;2022-10-19T09:00:41;6.82;;;5.18;;
11191;SDS011;5652;48.406;10.820;2022-10-19T09:03:12;7.95;;;5.43;;
11191;SDS011;5652;48.406;10.820;2022-10-19T09:05:41;6.53;;;5.32;;
11191;SDS011;5652;48.406;10.820;2022-10-19T09:08:10;8.98;;;5.88;;
11191;SDS011;5652;48.406;10.820;2022-10-19T09:10:39;7.95;;;5.88;;
11191;SDS011;5652;48.406;10.820;2022-10-19T09:13:09;6.82;;;5.75;;
11191;SDS011;5652;48.406;10.820;2022-10-19T09:15:39;7.75;;;6.35;;
11191;SDS011;5652;48.406;10.820;2022-10-19T09:18:08;6.45;;;5.65;;
11191;SDS011;5652;48.406;10.820;2022-10-19T09:20:36;7.93;;;5.30;;
11191;SDS011;5652;48.406;10.820;2022-10-19T09:23:08;9.07;;;6.05;;
11191;SDS011;5652;48.406;10.820;2022-10-19T09:25:39;6.47;;;5.32;;
11191;SDS011;5652;48.406;10.820;2022-10-19T09:28:12;6.90;;;5.00;;
11191;SDS011;5652;48.406;10.820;2022-10-19T09:30:40;6.82;;;5.07;;
11191;SDS011;5652;48.406;10.820;2022-10-19T09:33:11;6.57;;;4.85;;
11191;SDS011;5652;48.406;10.820;2022-10-19T09:35:42;7.00;;;4.80;;
11191;SDS011;5652;48.406;10.820;2022-10-19T09:38:10;5.25;;;4.75;;
11191;SDS011;5652;48.406;10.820;2022-10-19T09:40:39;5.05;;;4.47;;
11191;SDS011;5652;48.406;10.820;2022-10-19T09:43:06;5.78;;;4.22;;
11191;SDS011;5652;48.406;10.820;2022-10-19T09:45:45;5.90;;;4.50;;
11191;SDS011;5652;48.406;10.820;2022-10-19T09:48:15;5.07;;;4.57;;
11191;SDS011;5652;48.406;10.820;2022-10-19T09:50:44;5.15;;;4.32;;
11191;SDS011;5652;48.406;10.820;2022-10-19T09:53:15;5.45;;;4.55;;
11191;SDS011;5652;48.406;10.820;2022-10-19T09:55:46;6.30;;;4.47;;
11191;SDS011;5652;48.406;10.820;2022-10-19T09:58:15;4.60;;;4.13;;
11191;SDS011;5652;48.406;10.820;2022-10-19T10:00:43;5.40;;;3.90;;
11191;SDS011;5652;48.406;10.820;2022-10-19T10:03:24;6.00;;;4.28;;
11191;SDS011;5652;48.406;10.820;2022-10-19T10:05:52;5.13;;;4.25;;
11191;SDS011;5652;48.406;10.820;2022-10-19T10:08:20;4.90;;;3.80;;
11191;SDS011;5652;48.406;10.820;2022-10-19T10:10:55;4.20;;;3.55;;
11191;SDS011;5652;48.406;10.820;2022-10-19T10:13:23;4.27;;;3.63;;
11191;SDS011;5652;48.406;10.820;2022-10-19T10:15:53;4.95;;;4.22;;
11191;SDS011;5652;48.406;10.820;2022-10-19T10:18:22;5.13;;;3.70;;
11191;SDS011;5652;48.406;10.820;2022-10-19T10:20:57;6.15;;;4.07;;
11191;SDS011;5652;48.406;10.820;2022-10-19T10:23:25;4.68;;;4.15;;
11191;SDS011;5652;48.406;10.820;2022-10-19T10:25:55;6.38;;;4.35;;
11191;SDS011;5652;48.406;10.820;2022-10-19T10:28:23;5.55;;;4.20;;
11191;SDS011;5652;48.406;10.820;2022-10-19T10:30:52;5.00;;;4.10;;
11191;SDS011;5652;48.406;10.820;2022-10-19T10:33:20;5.27;;;4.57;;
11191;SDS011;5652;48.406;10.820;2022-10-19T10:35:50;5.00;;;4.37;;
11191;SDS011;5652;48.406;10.820;2022-10-19T10:38:21;5.00;;;4.05;;
11191;SDS011;5652;48.406;10.820;2022-10-19T10:40:49;6.25;;;4.68;;
11191;SDS011;5652;48.406;10.820;2022-10-19T10:43:19;5.60;;;4.55;;
11191;SDS011;5652;48.406;10.820;2022-10-19T10:45:48;5.43;;;4.80;;
11191;SDS011;5652;48.406;10.820;2022-10-19T10:48:20;5.85;;;4.70;;
11191;SDS011;5652;48.406;10.820;2022-10-19T10:50:49;6.35;;;4.93;;
11191;SDS011;5652;48.406;10.820;2022-10-19T10:53:36;6.57;;;4.80;;
11191;SDS011;5652;48.406;10.820;2022-10-19T10:56:04;6.00;;;4.90;;
11191;SDS011;5652;48.406;10.820;2022-10-19T10:58:35;6.25;;;4.45;;
11191;SDS011;5652;48.406;10.820;2022-10-19T11:01:05;6.93;;;5.35;;
11191;SDS011;5652;48.406;10.820;2022-10-19T11:03:33;6.65;;;5.95;;
11191;SDS011;5652;48.406;10.820;2022-10-19T11:06:01;7.82;;;6.15;;
11191;SDS011;5652;48.406;10.820;2022-10-19T11:08:30;7.28;;;6.13;;
11191;SDS011;5652;48.406;10.820;2022-10-19T11:10:59;5.22;;;4.55;;
11191;SDS011;5652;48.406;10.820;2022-10-19T11:13:29;6.80;;;4.80;;
11191;SDS011;5652;48.406;10.820;2022-10-19T11:15:59;6.13;;;4.88;;
11191;SDS011;5652;48.406;10.820;2022-10-19T11:18:29;10.10;;;5.93;;
11191;SDS011;5652;48.406;10.820;2022-10-19T11:21:00;7.60;;;5.47;;
11191;SDS011;5652;48.406;10.820;2022-10-19T11:23:39;7.33;;;5.40;;
11191;SDS011;5652;48.406;10.820;2022-10-19T11:26:13;6.28;;;5.30;;
11191;SDS011;5652;48.406;10.820;2022-10-19T11:28:47;6.63;;;5.57;;
11191;SDS011;5652;48.406;10.820;2022-10-19T11:31:18;6.15;;;5.07;;
11191;SDS011;5652;48.406;10.820;2022-10-19T11:33:48;4.93;;;4.00;;
11191;SDS011;5652;48.406;10.820;2022-10-19T11:36:22;6.50;;;4.68;;
11191;SDS011;5652;48.406;10.820;2022-10-19T11:38:56;6.28;;;4.40;;
11191;SDS011;5652;48.406;10.820;2022-10-19T11:41:26;5.85;;;4.32;;
11191;SDS011;5652;48.406;10.820;2022-10-19T11:44:01;4.60;;;4.20;;
11191;SDS011;5652;48.406;10.820;2022-10-19T11:46:36;4.60;;;4.07;;
11191;SDS011;5652;48.406;10.820;2022-10-19T11:49:07;5.15;;;3.92;;
11191;SDS011;5652;48.406;10.820;2022-10-19T11:51:37;5.13;;;3.88;;
11191;SDS011;5652;48.406;10.820;2022-10-19T11:54:14;6.95;;;3.80;;
11191;SDS011;5652;48.406;10.820;2022-10-19T11:56:43;5.13;;;3.50;;
11191;SDS011;5652;48.406;10.820;2022-10-19T11:59:16;4.00;;;3.60;;
11191;SDS011;5652;48.406;10.820;2022-10-19T12:01:52;5.37;;;3.40;;
11191;SDS011;5652;48.406;10.820;2022-10-19T12:04:22;4.97;;;3.57;;
11191;SDS011;5652;48.406;10.820;2022-10-19T12:06:56;4.65;;;3.53;;
11191;SDS011;5652;48.406;10.820;2022-10-19T12:09:30;5.30;;;3.70;;
11191;SDS011;5652;48.406;10.820;2022-10-19T12:12:07;4.50;;;3.90;;
11191;SDS011;5652;48.406;10.820;2022-10-19T12:14:38;7.22;;;3.80;;
11191;SDS011;5652;48.406;10.820;2022-10-19T12:17:08;5.25;;;3.80;;
11191;SDS011;5652;48.406;10.820;2022-10-19T12:19:38;5.88;;;3.90;;
11191;SDS011;5652;48.406;10.820;2022-10-19T12:22:08;5.82;;;4.22;;
11191;SDS011;5652;48.406;10.820;2022-10-19T12:24:39;5.90;;;3.95;;
11191;SDS011;5652;48.406;10.820;2022-10-19T12:27:08;4.65;;;3.78;;
11191;SDS011;5652;48.406;10.820;2022-10-19T12:29:38;7.18;;;4.72;;
11191;SDS011;5652;48.406;10.820;2022-10-19T12:32:08;6.20;;;4.15;;
11191;SDS011;5652;48.406;10.820;2022-10-19T12:34:39;5.80;;;4.20;;
11191;SDS011;5652;48.406;10.820;2022-10-19T12:37:11;5.78;;;4.03;;
11191;SDS011;5652;48.406;10.820;2022-10-19T12:39:42;6.30;;;3.17;;
11191;SDS011;5652;48.406;10.820;2022-10-19T12:42:14;6.68;;;3.50;;
11191;SDS011;5652;48.406;10.820;2022-10-19T12:45:01;3.83;;;3.30;;
11191;SDS011;5652;48.406;10.820;2022-10-19T12:47:33;5.00;;;3.72;;
11191;SDS011;5652;48.406;10.820;2022-10-19T12:50:01;4.03;;;3.55;;
11191;SDS011;5652;48.406;10.820;2022-10-19T12:52:38;4.90;;;3.38;;
11191;SDS011;5652;48.406;10.820;2022-10-19T12:55:09;5.30;;;3.10;;
11191;SDS011;5652;48.406;10.820;2022-10-19T12:57:36;3.70;;;3.08;;
11191;SDS011;5652;48.406;10.820;2022-10-19T13:00:05;4.85;;;2.80;;
11191;SDS011;5652;48.406;10.820;2022-10-19T13:02:45;3.10;;;2.58;;
11191;SDS011;5652;48.406;10.820;2022-10-19T13:05:18;5.70;;;2.50;;
11191;SDS011;5652;48.406;10.820;2022-10-19T13:07:46;3.90;;;2.42;;
11191;SDS011;5652;48.406;10.820;2022-10-19T13:10:17;3.42;;;2.60;;
11191;SDS011;5652;48.406;10.820;2022-10-19T13:12:45;3.50;;;2.65;;
11191;SDS011;5652;48.406;10.820;2022-10-19T13:17:59;3.15;;;2.60;;
11191;SDS011;5652;48.406;10.820;2022-10-19T13:23:35;2.90;;;2.60;;
11191;SDS011;5652;48.406;10.820;2022-10-19T13:26:22;3.30;;;2.40;;
11191;SDS011;5652;48.406;10.820;2022-10-19T13:28:52;6.40;;;3.10;;
11191;SDS011;5652;48.406;10.820;2022-10-19T13:31:24;3.53;;;2.80;;
11191;SDS011;5652;48.406;10.820;2022-10-19T13:33:53;5.17;;;3.10;;
11191;SDS011;5652;48.406;10.820;2022-10-19T13:36:20;3.25;;;2.95;;
11191;SDS011;5652;48.406;10.820;2022-10-19T13:39:04;4.03;;;2.88;;
11191;SDS011;5652;48.406;10.820;2022-10-19T13:41:46;3.45;;;2.85;;
11191;SDS011;5652;48.406;10.820;2022-10-19T13:44:17;2.95;;;2.65;;
11191;SDS011;5652;48.406;10.820;2022-10-19T13:46:47;4.03;;;3.10;;
11191;SDS011;5652;48.406;10.820;2022-10-19T13:49:22;3.72;;;3.00;;
11191;SDS011;5652;48.406;10.820;2022-10-19T13:52:03;5.32;;;3.40;;
11191;SDS011;5652;48.406;10.820;2022-10-19T13:54:39;3.90;;;2.90;;
11191;SDS011;5652;48.406;10.820;2022-10-19T13:57:12;4.55;;;3.00;;
11191;SDS011;5652;48.406;10.820;2022-10-19T13:59:57;4.18;;;3.33;;
11191;SDS011;5652;48.406;10.820;2022-10-19T14:02:36;5.82;;;3.50;;
11191;SDS011;5652;48.406;10.820;2022-10-19T14:05:11;3.58;;;3.20;;
11191;SDS011;5652;48.406;10.820;2022-10-19T14:07:44;4.82;;;3.10;;
11191;SDS011;5652;48.406;10.820;2022-10-19T14:10:15;4.13;;;3.30;;
11191;SDS011;5652;48.406;10.820;2022-10-19T14:12:43;3.93;;;3.30;;
11191;SDS011;5652;48.406;10.820;2022-10-19T14:15:21;5.33;;;3.10;;
11191;SDS011;5652;48.406;10.820;2022-10-19T14:17:49;3.40;;;3.10;;
11191;SDS011;5652;48.406;10.820;2022-10-19T14:20:28;4.53;;;3.20;;
11191;SDS011;5652;48.406;10.820;2022-10-19T14:22:55;4.00;;;3.45;;
11191;SDS011;5652;48.406;10.820;2022-10-19T14:25:23;5.15;;;3.40;;
11191;SDS011;5652;48.406;10.820;2022-10-19T14:27:55;6.00;;;3.90;;
11191;SDS011;5652;48.406;10.820;2022-10-19T14:30:25;4.80;;;4.07;;
11191;SDS011;5652;48.406;10.820;2022-10-19T14:32:53;6.70;;;3.97;;
11191;SDS011;5652;48.406;10.820;2022-10-19T14:35:22;5.72;;;4.10;;
11191;SDS011;5652;48.406;10.820;2022-10-19T14:37:51;4.82;;;4.10;;
11191;SDS011;5652;48.406;10.820;2022-10-19T14:40:23;5.80;;;4.40;;
11191;SDS011;5652;48.406;10.820;2022-10-19T14:42:50;5.70;;;4.38;;
11191;SDS011;5652;48.406;10.820;2022-10-19T14:45:19;5.70;;;4.20;;
11191;SDS011;5652;48.406;10.820;2022-10-19T14:47:50;5.78;;;3.85;;
11191;SDS011;5652;48.406;10.820;2022-10-19T14:50:17;5.72;;;4.47;;
11191;SDS011;5652;48.406;10.820;2022-10-19T14:52:45;4.53;;;3.90;;
11191;SDS011;5652;48.406;10.820;2022-10-19T14:55:16;4.60;;;3.95;;
11191;SDS011;5652;48.406;10.820;2022-10-19T14:57:44;6.60;;;3.72;;
11191;SDS011;5652;48.406;10.820;2022-10-19T15:00:14;3.80;;;3.40;;
11191;SDS011;5652;48.406;10.820;2022-10-19T15:02:44;5.20;;;3.08;;